Time;durP1;ratioP1;P1;durP2;ratioP2;P2;SDS_P1;SDS_P2;PMS_P1;PMS_P2;Temp;Humidity;BMP_temperature;BMP_pressure;BME280_temperature;BME280_humidity;BME280_pressure;Samples;Min_cycle;Max_cycle;Signal;HPM_P1;HPM_P2
2021/05/16 00:02:04;;;;;;;13.70;10.25;;;;;;;;;;5093556;28;20383;-49
2021/05/16 00:04:30;;;;;;;16.25;11.45;;;;;;;;;;5093305;28;20519;-50
2021/05/16 00:06:56;;;;;;;11.23;9.90;;;;;;;;;;5093286;28;20032;-49
2021/05/16 00:09:22;;;;;;;16.58;9.27;;;;;;;;;;5093659;28;20388;-48
2021/05/16 00:11:48;;;;;;;11.68;9.60;;;;;;;;;;5092996;28;20039;-50
2021/05/16 00:14:14;;;;;;;22.65;13.30;;;;;;;;;;5091869;28;20041;-49
2021/05/16 00:16:41;;;;;;;28.92;17.23;;;;;;;;;;5093438;28;20016;-48
2021/05/16 00:19:08;;;;;;;35.78;23.42;;;;;;;;;;5093333;28;20035;-49
2021/05/16 00:21:34;;;;;;;29.80;20.63;;;;;;;;;;5093388;28;20025;-49
2021/05/16 00:24:00;;;;;;;54.83;32.42;;;;;;;;;;5093136;28;20024;-50
2021/05/16 00:26:26;;;;;;;15.55;10.68;;;;;;;;;;5091724;28;20040;-49
2021/05/16 00:28:52;;;;;;;23.42;16.08;;;;;;;;;;5093096;28;20020;-47
2021/05/16 00:31:19;;;;;;;21.35;14.13;;;;;;;;;;5093083;28;20020;-48
2021/05/16 00:33:47;;;;;;;31.40;18.63;;;;;;;;;;5093307;28;20012;-48
2021/05/16 00:36:13;;;;;;;31.35;20.48;;;;;;;;;;5093169;28;20037;-48
2021/05/16 00:38:39;;;;;;;38.90;22.23;;;;;;;;;;5093156;28;20460;-47
2021/05/16 00:41:05;;;;;;;15.05;12.15;;;;;;;;;;5092844;28;20073;-49
2021/05/16 00:43:31;;;;;;;43.88;26.08;;;;;;;;;;5093029;28;20024;-49
2021/05/16 00:45:57;;;;;;;20.75;14.30;;;;;;;;;;5092810;28;20044;-49
2021/05/16 00:48:23;;;;;;;44.08;25.90;;;;;;;;;;5092907;28;20095;-48
2021/05/16 00:50:50;;;;;;;86.10;51.78;;;;;;;;;;5092897;28;20495;-48
2021/05/16 00:53:23;;;;;;;46.05;28.63;;;;;;;;;;5092824;28;20020;-48
2021/05/16 00:55:53;;;;;;;21.67;16.60;;;;;;;;;;5092949;28;20103;-47
2021/05/16 00:58:20;;;;;;;42.17;26.33;;;;;;;;;;5092776;28;20408;-48
2021/05/16 01:00:46;;;;;;;22.23;16.67;;;;;;;;;;5092839;28;20032;-48
2021/05/16 01:03:12;;;;;;;27.77;19.92;;;;;;;;;;5091639;28;20116;-48
2021/05/16 01:05:41;;;;;;;21.77;13.48;;;;;;;;;;5092685;28;20440;-48
2021/05/16 01:08:07;;;;;;;27.08;19.70;;;;;;;;;;5092808;28;20052;-48
2021/05/16 01:10:34;;;;;;;79.43;50.92;;;;;;;;;;5092768;28;20025;-47
2021/05/16 01:13:00;;;;;;;44.92;29.88;;;;;;;;;;5091576;28;20170;-49
2021/05/16 01:15:28;;;;;;;41.40;27.23;;;;;;;;;;5096636;28;20069;-48
2021/05/16 01:17:54;;;;;;;48.13;31.02;;;;;;;;;;5096294;28;20467;-47
2021/05/16 01:20:23;;;;;;;21.85;15.40;;;;;;;;;;5095064;28;20386;-48
2021/05/16 01:22:53;;;;;;;22.27;17.73;;;;;;;;;;5096284;28;20024;-49
2021/05/16 01:25:20;;;;;;;46.40;30.13;;;;;;;;;;5096056;28;20039;-48
2021/05/16 01:27:46;;;;;;;17.27;12.75;;;;;;;;;;5096068;28;20016;-51
2021/05/16 01:30:13;;;;;;;25.88;17.25;;;;;;;;;;5096107;28;20032;-49
2021/05/16 01:32:39;;;;;;;26.00;18.00;;;;;;;;;;5096363;28;20028;-49
2021/05/16 01:35:07;;;;;;;20.77;13.73;;;;;;;;;;5096238;28;20483;-50
2021/05/16 01:37:33;;;;;;;18.13;10.98;;;;;;;;;;5096378;28;20028;-50
2021/05/16 01:39:59;;;;;;;26.52;19.13;;;;;;;;;;5095850;28;20027;-49
2021/05/16 01:42:26;;;;;;;20.27;14.27;;;;;;;;;;5095843;28;20535;-49
2021/05/16 01:45:02;;;;;;;26.60;18.50;;;;;;;;;;5096049;28;20071;-49
2021/05/16 01:47:28;;;;;;;30.38;19.80;;;;;;;;;;5095848;28;20078;-49
2021/05/16 01:50:00;;;;;;;35.35;22.27;;;;;;;;;;5096006;28;20074;-49
2021/05/16 01:52:29;;;;;;;22.60;17.05;;;;;;;;;;5095761;28;20022;-49
2021/05/16 01:54:55;;;;;;;28.80;19.73;;;;;;;;;;5095705;28;20020;-49
2021/05/16 01:57:22;;;;;;;44.95;25.58;;;;;;;;;;5095522;28;20020;-49
2021/05/16 01:59:48;;;;;;;34.65;22.40;;;;;;;;;;5095587;28;20024;-49
2021/05/16 02:02:14;;;;;;;30.58;21.38;;;;;;;;;;5095704;28;20035;-49
2021/05/16 02:04:43;;;;;;;14.57;10.63;;;;;;;;;;5095671;28;20078;-49
2021/05/16 02:07:11;;;;;;;22.67;11.90;;;;;;;;;;5095479;28;20027;-49
2021/05/16 02:09:38;;;;;;;17.85;11.75;;;;;;;;;;5095484;28;20047;-49
2021/05/16 02:12:04;;;;;;;19.90;10.63;;;;;;;;;;5094964;28;20048;-49
2021/05/16 02:14:31;;;;;;;20.55;13.95;;;;;;;;;;5095487;28;20494;-48
2021/05/16 02:16:59;;;;;;;14.50;10.63;;;;;;;;;;5095486;28;20488;-49
2021/05/16 02:19:25;;;;;;;19.90;14.65;;;;;;;;;;5095324;28;20451;-49
2021/05/16 02:21:52;;;;;;;22.10;13.90;;;;;;;;;;5095326;28;20395;-49
2021/05/16 02:24:18;;;;;;;46.55;29.58;;;;;;;;;;5094583;28;20111;-49
2021/05/16 02:26:44;;;;;;;26.52;18.17;;;;;;;;;;5094379;28;20024;-49
2021/05/16 02:29:11;;;;;;;29.05;18.40;;;;;;;;;;5095074;28;20052;-49
2021/05/16 02:31:37;;;;;;;20.80;14.98;;;;;;;;;;5095099;28;20031;-49
2021/05/16 02:34:04;;;;;;;17.25;13.35;;;;;;;;;;5094966;28;20413;-48
2021/05/16 02:36:30;;;;;;;21.77;14.73;;;;;;;;;;5094947;28;20024;-49
2021/05/16 02:38:56;;;;;;;18.58;13.15;;;;;;;;;;5094959;28;20031;-49
2021/05/16 02:41:23;;;;;;;15.93;11.20;;;;;;;;;;5094675;28;20499;-48
2021/05/16 02:43:49;;;;;;;16.92;10.30;;;;;;;;;;5094708;28;20032;-48
2021/05/16 02:46:15;;;;;;;20.60;13.68;;;;;;;;;;5094688;28;20039;-48
2021/05/16 02:48:41;;;;;;;16.67;12.43;;;;;;;;;;5094881;28;20020;-48
2021/05/16 02:51:07;;;;;;;10.70;8.23;;;;;;;;;;5094937;28;20028;-48
2021/05/16 02:53:34;;;;;;;16.48;9.07;;;;;;;;;;5094716;28;20035;-48
2021/05/16 02:56:00;;;;;;;10.05;8.52;;;;;;;;;;5094656;28;20024;-47
2021/05/16 02:58:26;;;;;;;14.75;10.93;;;;;;;;;;5094419;28;20098;-48
2021/05/16 03:00:53;;;;;;;12.35;8.80;;;;;;;;;;5094595;28;20028;-47
2021/05/16 03:03:19;;;;;;;14.40;9.07;;;;;;;;;;5094626;28;20063;-48
2021/05/16 03:05:45;;;;;;;11.68;8.55;;;;;;;;;;5094362;28;20054;-48
2021/05/16 03:08:12;;;;;;;14.75;9.80;;;;;;;;;;5094416;28;20424;-47
2021/05/16 03:10:38;;;;;;;12.55;9.27;;;;;;;;;;5093981;28;20064;-47
2021/05/16 03:13:04;;;;;;;11.35;8.95;;;;;;;;;;5094087;28;20103;-47
2021/05/16 03:15:31;;;;;;;10.10;8.43;;;;;;;;;;5094337;28;20073;-47
2021/05/16 03:17:57;;;;;;;12.23;9.10;;;;;;;;;;5094119;28;20016;-47
2021/05/16 03:20:23;;;;;;;8.95;7.90;;;;;;;;;;5094236;28;20096;-48
2021/05/16 03:22:49;;;;;;;11.10;8.32;;;;;;;;;;5094081;28;20020;-48
2021/05/16 03:25:15;;;;;;;10.20;8.07;;;;;;;;;;5093889;28;20111;-48
2021/05/16 03:27:41;;;;;;;11.00;8.35;;;;;;;;;;5093789;28;20384;-48
2021/05/16 03:30:09;;;;;;;10.98;8.50;;;;;;;;;;5093999;28;20032;-47
2021/05/16 03:32:36;;;;;;;8.13;6.82;;;;;;;;;;5093983;28;20055;-47
2021/05/16 03:35:03;;;;;;;8.60;6.90;;;;;;;;;;5093976;28;20019;-47
2021/05/16 03:37:29;;;;;;;10.48;7.72;;;;;;;;;;5093727;28;20074;-47
2021/05/16 03:39:55;;;;;;;8.23;7.20;;;;;;;;;;5093945;28;20020;-47
2021/05/16 03:42:21;;;;;;;10.80;8.07;;;;;;;;;;5093648;28;20107;-47
2021/05/16 03:44:47;;;;;;;9.30;8.07;;;;;;;;;;5093804;28;20032;-48
2021/05/16 03:47:13;;;;;;;11.38;8.63;;;;;;;;;;5092403;28;20383;-47
2021/05/16 03:49:40;;;;;;;10.80;8.73;;;;;;;;;;5093696;28;20077;-48
2021/05/16 03:52:06;;;;;;;12.32;8.50;;;;;;;;;;5093695;28;20030;-48
2021/05/16 03:54:32;;;;;;;13.13;8.55;;;;;;;;;;5093596;28;20031;-47
2021/05/16 03:56:58;;;;;;;11.95;8.85;;;;;;;;;;5093355;28;20028;-47
2021/05/16 03:59:24;;;;;;;13.07;8.82;;;;;;;;;;5093779;28;20364;-49
2021/05/16 04:01:51;;;;;;;11.35;7.28;;;;;;;;;;5093398;28;20020;-49
2021/05/16 04:04:17;;;;;;;14.95;7.57;;;;;;;;;;5093537;28;20024;-47
2021/05/16 04:06:43;;;;;;;11.77;8.10;;;;;;;;;;5093666;28;20032;-47
2021/05/16 04:09:09;;;;;;;9.32;6.70;;;;;;;;;;5093428;28;20028;-49
2021/05/16 04:11:35;;;;;;;10.88;8.63;;;;;;;;;;5093163;28;20554;-47
2021/05/16 04:14:03;;;;;;;10.88;7.38;;;;;;;;;;5093220;28;20024;-47
2021/05/16 04:16:29;;;;;;;10.32;7.22;;;;;;;;;;5093542;28;20024;-47
2021/05/16 04:18:55;;;;;;;9.45;7.45;;;;;;;;;;5093578;28;20046;-47
2021/05/16 04:21:21;;;;;;;9.70;7.00;;;;;;;;;;5093292;28;20031;-47
2021/05/16 04:23:47;;;;;;;17.08;10.68;;;;;;;;;;5093438;28;20028;-47
2021/05/16 04:26:14;;;;;;;10.63;7.30;;;;;;;;;;5093117;28;20161;-47
2021/05/16 04:28:40;;;;;;;10.02;6.40;;;;;;;;;;5093222;28;20020;-47
2021/05/16 04:31:06;;;;;;;12.40;6.80;;;;;;;;;;5093251;28;20507;-47
2021/05/16 04:33:32;;;;;;;11.25;6.70;;;;;;;;;;5093329;28;20020;-47
2021/05/16 04:35:59;;;;;;;15.77;6.65;;;;;;;;;;5093348;28;20036;-46
2021/05/16 04:38:25;;;;;;;30.23;21.50;;;;;;;;;;5093249;28;20043;-46
2021/05/16 04:40:51;;;;;;;24.88;12.25;;;;;;;;;;5092983;28;20035;-46
2021/05/16 04:43:17;;;;;;;19.30;12.60;;;;;;;;;;5092903;28;20043;-46
2021/05/16 04:45:43;;;;;;;27.08;17.70;;;;;;;;;;5093178;28;20058;-47
2021/05/16 04:48:10;;;;;;;11.80;8.85;;;;;;;;;;5093875;28;20357;-47
2021/05/16 04:50:38;;;;;;;17.80;11.07;;;;;;;;;;5097248;28;20024;-47
2021/05/16 04:53:04;;;;;;;25.38;15.30;;;;;;;;;;5097438;28;20395;-47
2021/05/16 04:55:31;;;;;;;22.27;13.85;;;;;;;;;;5096885;28;20062;-47
2021/05/16 04:57:57;;;;;;;44.47;25.98;;;;;;;;;;5096681;28;20016;-47
2021/05/16 05:00:24;;;;;;;24.33;15.57;;;;;;;;;;5096857;28;20035;-47
2021/05/16 05:02:50;;;;;;;17.23;10.93;;;;;;;;;;5096751;28;20028;-47
2021/05/16 05:05:16;;;;;;;27.02;13.93;;;;;;;;;;5096681;28;20526;-48
2021/05/16 05:07:43;;;;;;;21.60;11.98;;;;;;;;;;5096703;28;20016;-48
2021/05/16 05:10:09;;;;;;;20.58;13.85;;;;;;;;;;5096573;28;20379;-48
2021/05/16 05:12:36;;;;;;;17.65;10.02;;;;;;;;;;5096325;28;20123;-48
2021/05/16 05:15:02;;;;;;;27.55;18.25;;;;;;;;;;5096743;28;20028;-48
2021/05/16 05:17:28;;;;;;;35.95;22.48;;;;;;;;;;5096533;28;20039;-47
2021/05/16 05:19:54;;;;;;;11.60;7.50;;;;;;;;;;5096539;28;20380;-48
2021/05/16 05:22:23;;;;;;;11.70;7.47;;;;;;;;;;5096447;28;20032;-48
2021/05/16 05:24:49;;;;;;;25.05;13.45;;;;;;;;;;5096218;28;20035;-47
2021/05/16 05:27:15;;;;;;;30.10;16.13;;;;;;;;;;5096042;28;20032;-52
2021/05/16 05:29:41;;;;;;;20.48;10.65;;;;;;;;;;5096542;28;20058;-47
2021/05/16 05:32:07;;;;;;;17.83;8.90;;;;;;;;;;5096380;28;20028;-47
2021/05/16 05:34:33;;;;;;;14.00;7.65;;;;;;;;;;5096273;28;20031;-47
2021/05/16 05:37:00;;;;;;;12.02;5.82;;;;;;;;;;5095033;28;20103;-47
2021/05/16 05:39:26;;;;;;;15.50;6.38;;;;;;;;;;5096341;28;20484;-47
2021/05/16 05:41:52;;;;;;;16.52;8.60;;;;;;;;;;5095800;28;20028;-50
2021/05/16 05:44:18;;;;;;;9.27;5.07;;;;;;;;;;5096066;28;20055;-48
2021/05/16 05:46:44;;;;;;;4.75;3.50;;;;;;;;;;5094723;28;20036;-47
2021/05/16 05:49:10;;;;;;;11.63;4.20;;;;;;;;;;5095958;28;20430;-47
2021/05/16 05:51:36;;;;;;;16.35;8.10;;;;;;;;;;5096073;28;20028;-48
2021/05/16 05:54:02;;;;;;;15.30;9.50;;;;;;;;;;5095888;28;20480;-48
2021/05/16 05:56:31;;;;;;;13.68;6.57;;;;;;;;;;5096050;28;20434;-47
2021/05/16 05:58:57;;;;;;;7.05;4.35;;;;;;;;;;5095544;28;20024;-47
2021/05/16 06:01:23;;;;;;;8.75;5.00;;;;;;;;;;5095785;28;20032;-48
2021/05/16 06:03:49;;;;;;;5.65;3.55;;;;;;;;;;5095669;28;20024;-47
2021/05/16 06:06:15;;;;;;;11.20;6.93;;;;;;;;;;5095787;28;20092;-47
2021/05/16 06:08:44;;;;;;;13.82;8.32;;;;;;;;;;5095535;28;20024;-47
2021/05/16 06:11:10;;;;;;;21.65;12.65;;;;;;;;;;5095256;28;20043;-47
2021/05/16 06:13:36;;;;;;;12.20;8.75;;;;;;;;;;5095179;28;20030;-47
2021/05/16 06:16:02;;;;;;;19.33;9.40;;;;;;;;;;5095334;28;20023;-47
2021/05/16 06:18:30;;;;;;;29.05;17.30;;;;;;;;;;5095208;28;20115;-48
2021/05/16 06:20:56;;;;;;;18.75;9.88;;;;;;;;;;5095253;28;20516;-47
2021/05/16 06:23:32;;;;;;;17.35;10.27;;;;;;;;;;5095059;28;20032;-47
2021/05/16 06:25:58;;;;;;;12.38;8.23;;;;;;;;;;5094932;28;20115;-48
2021/05/16 06:28:24;;;;;;;10.73;7.45;;;;;;;;;;5095209;28;20380;-48
2021/05/16 06:30:50;;;;;;;9.57;6.28;;;;;;;;;;5095285;28;20031;-48
2021/05/16 06:33:19;;;;;;;6.32;4.13;;;;;;;;;;5095128;28;20022;-48
2021/05/16 06:35:45;;;;;;;10.15;5.78;;;;;;;;;;5095104;28;20052;-48
2021/05/16 06:38:11;;;;;;;16.33;6.53;;;;;;;;;;5094929;28;20495;-48
2021/05/16 06:40:38;;;;;;;10.93;5.57;;;;;;;;;;5094485;28;20032;-48
2021/05/16 06:43:06;;;;;;;11.60;7.03;;;;;;;;;;5094835;28;20052;-48
2021/05/16 06:45:33;;;;;;;31.45;13.57;;;;;;;;;;5094782;28;20032;-47
2021/05/16 06:47:59;;;;;;;82.70;42.85;;;;;;;;;;5094756;28;20020;-47
2021/05/16 06:50:25;;;;;;;41.20;19.95;;;;;;;;;;5094729;28;20031;-47
2021/05/16 06:52:51;;;;;;;23.80;11.48;;;;;;;;;;5094589;28;20023;-48
2021/05/16 06:55:17;;;;;;;43.22;24.02;;;;;;;;;;5094546;28;20031;-47
2021/05/16 06:57:43;;;;;;;35.50;18.08;;;;;;;;;;5094645;28;20030;-47
2021/05/16 07:00:10;;;;;;;17.83;9.55;;;;;;;;;;5094569;28;20508;-48
2021/05/16 07:02:36;;;;;;;18.73;9.20;;;;;;;;;;5094554;28;20027;-48
2021/05/16 07:05:02;;;;;;;12.43;7.43;;;;;;;;;;5094247;28;20070;-47
2021/05/16 07:07:28;;;;;;;9.23;5.93;;;;;;;;;;5094396;28;20030;-46
2021/05/16 07:09:54;;;;;;;7.57;4.55;;;;;;;;;;5094178;28;20382;-47
2021/05/16 07:12:20;;;;;;;12.38;8.50;;;;;;;;;;5093480;28;20115;-47
2021/05/16 07:14:46;;;;;;;19.13;11.50;;;;;;;;;;5094131;28;20028;-47
2021/05/16 07:17:12;;;;;;;26.75;15.15;;;;;;;;;;5094280;28;20052;-48
2021/05/16 07:19:38;;;;;;;19.20;11.50;;;;;;;;;;5094089;28;20590;-48
2021/05/16 07:22:05;;;;;;;9.18;4.45;;;;;;;;;;5094103;28;20028;-48
2021/05/16 07:24:31;;;;;;;14.75;7.60;;;;;;;;;;5093996;28;20430;-46
2021/05/16 07:26:57;;;;;;;5.38;3.92;;;;;;;;;;5093856;28;20082;-47
2021/05/16 07:29:23;;;;;;;9.32;5.55;;;;;;;;;;5093989;28;20073;-47
2021/05/16 07:31:53;;;;;;;8.43;4.38;;;;;;;;;;5093877;28;20034;-47
2021/05/16 07:34:21;;;;;;;7.15;3.63;;;;;;;;;;5093806;28;20523;-47
2021/05/16 07:36:47;;;;;;;12.02;6.80;;;;;;;;;;5093908;28;20024;-53
2021/05/16 07:39:14;;;;;;;205.20;133.50;;;;;;;;;;5093618;28;20031;-48
2021/05/16 07:41:40;;;;;;;882.08;468.90;;;;;;;;;;5093433;28;20063;-48
2021/05/16 07:44:06;;;;;;;110.38;65.80;;;;;;;;;;5093504;28;20054;-47
2021/05/16 07:46:32;;;;;;;28.17;18.27;;;;;;;;;;5093377;28;20034;-49
2021/05/16 07:48:58;;;;;;;6.00;4.00;;;;;;;;;;5093569;28;20472;-48
2021/05/16 07:51:27;;;;;;;5.80;3.67;;;;;;;;;;5093025;28;20055;-49
2021/05/16 07:53:55;;;;;;;21.10;9.10;;;;;;;;;;5093553;28;20514;-51
2021/05/16 07:56:24;;;;;;;10.88;5.22;;;;;;;;;;5092656;28;20480;-50
2021/05/16 07:58:50;;;;;;;8.77;5.05;;;;;;;;;;5092820;28;20505;-49
2021/05/16 08:01:16;;;;;;;463.40;239.60;;;;;;;;;;5092634;28;20111;-50
2021/05/16 08:03:42;;;;;;;65.38;52.15;;;;;;;;;;5092863;28;20040;-49
2021/05/16 08:06:08;;;;;;;17.02;7.55;;;;;;;;;;5092284;28;20029;-50
2021/05/16 08:08:37;;;;;;;42.95;25.52;;;;;;;;;;5092910;28;20065;-48
2021/05/16 08:11:03;;;;;;;25.33;14.73;;;;;;;;;;5092395;28;20043;-50
2021/05/16 08:13:29;;;;;;;58.58;37.08;;;;;;;;;;5092699;28;20020;-50
2021/05/16 08:15:55;;;;;;;248.32;131.77;;;;;;;;;;5092785;28;20028;-49
2021/05/16 08:18:21;;;;;;;281.75;213.70;;;;;;;;;;5092727;28;20077;-49
2021/05/16 08:20:47;;;;;;;61.78;35.15;;;;;;;;;;5092301;28;20020;-49
2021/05/16 08:23:13;;;;;;;55.33;25.90;;;;;;;;;;5092825;28;20077;-49
2021/05/16 08:25:40;;;;;;;58.85;33.92;;;;;;;;;;5096412;28;20067;-48
2021/05/16 08:28:07;;;;;;;125.95;44.85;;;;;;;;;;5096638;28;20024;-49
2021/05/16 08:30:33;;;;;;;235.35;135.38;;;;;;;;;;5096916;28;20027;-48
2021/05/16 08:32:59;;;;;;;82.97;49.00;;;;;;;;;;5096554;28;20051;-48
2021/05/16 08:35:28;;;;;;;89.78;48.13;;;;;;;;;;5096713;28;20077;-48
2021/05/16 08:37:54;;;;;;;32.03;17.63;;;;;;;;;;5096577;28;20048;-50
2021/05/16 08:40:21;;;;;;;13.50;7.63;;;;;;;;;;5096025;28;20031;-48
2021/05/16 08:42:49;;;;;;;21.13;10.48;;;;;;;;;;5095976;28;20028;-48
2021/05/16 08:45:15;;;;;;;181.70;108.45;;;;;;;;;;5096328;28;20407;-50
2021/05/16 08:47:43;;;;;;;307.33;180.90;;;;;;;;;;5096479;28;20016;-48
2021/05/16 08:50:11;;;;;;;525.13;324.90;;;;;;;;;;5096373;28;20024;-48
2021/05/16 08:52:37;;;;;;;84.97;58.38;;;;;;;;;;5096368;28;20016;-47
2021/05/16 08:55:05;;;;;;;15.43;10.50;;;;;;;;;;5096252;28;20020;-47
2021/05/16 08:57:33;;;;;;;17.27;9.85;;;;;;;;;;5096109;28;20095;-47
2021/05/16 09:00:26;;;;;;;64.65;39.67;;;;;;;;;;5083522;28;20155;-47
2021/05/16 09:02:58;;;;;;;13.77;8.90;;;;;;;;;;5062206;28;20487;-47
2021/05/16 09:05:26;;;;;;;27.05;11.43;;;;;;;;;;5065083;28;20063;-47
2021/05/16 09:08:02;;;;;;;27.60;16.73;;;;;;;;;;5064505;28;20455;-48
2021/05/16 09:10:28;;;;;;;65.85;39.83;;;;;;;;;;5064071;28;20024;-48
2021/05/16 09:13:06;;;;;;;33.90;19.90;;;;;;;;;;5063640;28;20640;-48
2021/05/16 09:15:32;;;;;;;77.95;45.97;;;;;;;;;;5064132;28;20531;-48
2021/05/16 09:17:59;;;;;;;17.15;7.32;;;;;;;;;;5064189;28;20031;-50
2021/05/16 09:20:25;;;;;;;22.88;11.38;;;;;;;;;;5064013;28;20090;-50
2021/05/16 09:22:54;;;;;;;36.67;20.77;;;;;;;;;;5065135;28;20040;-48
2021/05/16 09:25:30;;;;;;;16.60;8.85;;;;;;;;;;5063565;28;20412;-49
2021/05/16 09:27:57;;;;;;;20.92;9.95;;;;;;;;;;5064154;28;20330;-50
2021/05/16 09:30:24;;;;;;;34.95;19.90;;;;;;;;;;5063472;28;20024;-52
2021/05/16 09:32:53;;;;;;;41.80;23.77;;;;;;;;;;5063620;28;20103;-49
2021/05/16 09:35:34;;;;;;;58.42;34.20;;;;;;;;;;5063263;28;20443;-49
2021/05/16 09:38:03;;;;;;;30.42;20.15;;;;;;;;;;5063947;28;20034;-49
2021/05/16 09:40:31;;;;;;;18.63;10.60;;;;;;;;;;5063612;28;20028;-51
2021/05/16 09:43:11;;;;;;;5.57;3.03;;;;;;;;;;5064340;28;20128;-48
2021/05/16 09:45:41;;;;;;;21.58;13.30;;;;;;;;;;5064382;28;20032;-48
2021/05/16 09:48:30;;;;;;;32.05;17.08;;;;;;;;;;5063592;28;20036;-48
2021/05/16 09:51:05;;;;;;;7.78;4.85;;;;;;;;;;5063762;28;20028;-48
2021/05/16 09:53:31;;;;;;;15.07;8.82;;;;;;;;;;5064675;28;20525;-48
2021/05/16 09:56:24;;;;;;;61.20;24.83;;;;;;;;;;5063463;28;20028;-48
2021/05/16 09:58:51;;;;;;;14.73;9.70;;;;;;;;;;5060369;28;20036;-49
2021/05/16 10:01:18;;;;;;;21.48;11.35;;;;;;;;;;5063397;28;20090;-48
2021/05/16 10:03:46;;;;;;;18.13;12.00;;;;;;;;;;5064250;28;20239;-48
2021/05/16 10:06:12;;;;;;;19.65;10.77;;;;;;;;;;5062963;28;20080;-48
2021/05/16 10:08:39;;;;;;;5.75;3.55;;;;;;;;;;5063063;28;20225;-48
2021/05/16 10:11:06;;;;;;;17.55;6.25;;;;;;;;;;5062864;28;20051;-49
2021/05/16 10:13:35;;;;;;;21.40;13.00;;;;;;;;;;5063006;28;20344;-50
2021/05/16 10:16:02;;;;;;;33.53;21.70;;;;;;;;;;5063811;28;20560;-49
2021/05/16 10:18:29;;;;;;;55.38;33.75;;;;;;;;;;5064283;28;20541;-51
2021/05/16 10:20:56;;;;;;;35.47;20.08;;;;;;;;;;5062687;28;20046;-50
2021/05/16 10:23:33;;;;;;;19.17;10.55;;;;;;;;;;5062662;28;20027;-51
2021/05/16 10:26:16;;;;;;;14.32;8.65;;;;;;;;;;5062783;28;20452;-51
2021/05/16 10:29:01;;;;;;;19.70;10.38;;;;;;;;;;5062640;28;20024;-49
2021/05/16 10:31:54;;;;;;;20.13;9.85;;;;;;;;;;5064118;28;20020;-49
2021/05/16 10:34:26;;;;;;;18.17;10.38;;;;;;;;;;5059461;28;20051;-49
2021/05/16 10:36:52;;;;;;;12.05;4.57;;;;;;;;;;5062518;28;20131;-50
2021/05/16 10:39:37;;;;;;;18.77;7.78;;;;;;;;;;5062532;28;20506;-49
2021/05/16 10:42:18;;;;;;;13.65;6.80;;;;;;;;;;5062219;28;20044;-50
2021/05/16 10:45:02;;;;;;;6.63;3.10;;;;;;;;;;5063570;28;20139;-50
2021/05/16 10:47:53;;;;;;;8.02;4.40;;;;;;;;;;5062985;28;20042;-49
2021/05/16 10:50:25;;;;;;;31.58;21.55;;;;;;;;;;5062007;28;21412;-48
2021/05/16 10:53:09;;;;;;;42.28;29.40;;;;;;;;;;5062327;28;20020;-49
2021/05/16 10:55:35;;;;;;;8.90;6.63;;;;;;;;;;5062072;28;20032;-50
2021/05/16 10:58:02;;;;;;;9.70;4.55;;;;;;;;;;5062078;28;20467;-50
2021/05/16 11:00:30;;;;;;;18.23;11.68;;;;;;;;;;5062262;28;20052;-50
2021/05/16 11:03:04;;;;;;;27.33;15.63;;;;;;;;;;5062035;28;20352;-50
2021/05/16 11:08:20;;;;;;;11.45;5.78;;;;;;;;;;5061565;28;20835;-50
2021/05/16 11:10:52;;;;;;;116.05;73.18;;;;;;;;;;5063318;28;20459;-50
2021/05/16 11:13:26;;;;;;;44.28;26.85;;;;;;;;;;5061472;28;20330;-49
2021/05/16 11:15:53;;;;;;;65.82;42.53;;;;;;;;;;5061344;28;20070;-50
2021/05/16 11:18:22;;;;;;;16.10;10.63;;;;;;;;;;5061553;28;20025;-49
2021/05/16 11:21:07;;;;;;;25.75;16.95;;;;;;;;;;5062686;28;20102;-51
2021/05/16 11:23:33;;;;;;;31.50;20.33;;;;;;;;;;5061392;28;20059;-52
2021/05/16 11:26:06;;;;;;;24.38;16.25;;;;;;;;;;5061665;28;20153;-48
2021/05/16 11:28:36;;;;;;;16.45;9.55;;;;;;;;;;5061480;28;20499;-50
2021/05/16 11:31:13;;;;;;;13.07;6.78;;;;;;;;;;5061295;28;20073;-51
2021/05/16 11:33:39;;;;;;;16.05;7.57;;;;;;;;;;5062637;28;20021;-52
2021/05/16 11:36:07;;;;;;;23.83;12.77;;;;;;;;;;5061449;28;20024;-49
2021/05/16 11:38:34;;;;;;;26.98;11.35;;;;;;;;;;5062722;28;20131;-52
2021/05/16 11:41:01;;;;;;;7.30;4.25;;;;;;;;;;5061703;28;20032;-52
2021/05/16 11:43:34;;;;;;;27.40;14.05;;;;;;;;;;5061589;28;20350;-50
2021/05/16 11:46:01;;;;;;;9.90;6.22;;;;;;;;;;5061640;28;20040;-49
2021/05/16 11:48:30;;;;;;;8.13;4.30;;;;;;;;;;5062406;28;20024;-51
2021/05/16 11:51:03;;;;;;;54.10;26.17;;;;;;;;;;5061434;28;20598;-50
2021/05/16 11:53:29;;;;;;;67.28;37.97;;;;;;;;;;5061406;28;20032;-51
2021/05/16 11:56:00;;;;;;;40.00;22.55;;;;;;;;;;5062216;28;20043;-49
2021/05/16 11:58:26;;;;;;;47.47;27.03;;;;;;;;;;5062427;28;20016;-51
2021/05/16 12:00:52;;;;;;;105.68;55.72;;;;;;;;;;5060923;28;20020;-51
2021/05/16 12:03:18;;;;;;;46.78;20.58;;;;;;;;;;5061416;28;20069;-50
2021/05/16 12:05:46;;;;;;;48.63;25.73;;;;;;;;;;5061231;28;20028;-50
2021/05/16 12:08:13;;;;;;;178.63;116.68;;;;;;;;;;5061000;28;20036;-50
2021/05/16 12:10:39;;;;;;;43.53;20.70;;;;;;;;;;5060616;28;20048;-50
2021/05/16 12:13:20;;;;;;;45.85;26.38;;;;;;;;;;5061271;28;20044;-51
2021/05/16 12:15:46;;;;;;;20.83;12.10;;;;;;;;;;5062056;28;20017;-49
2021/05/16 12:18:22;;;;;;;27.20;14.25;;;;;;;;;;5060739;28;20047;-52
2021/05/16 12:20:59;;;;;;;34.53;17.65;;;;;;;;;;5061050;28;20024;-48
2021/05/16 12:23:25;;;;;;;27.02;17.27;;;;;;;;;;5061055;28;20127;-48
2021/05/16 12:25:51;;;;;;;85.55;48.63;;;;;;;;;;5060856;28;20031;-49
2021/05/16 12:28:17;;;;;;;50.55;33.15;;;;;;;;;;5060921;28;20136;-51
2021/05/16 12:30:44;;;;;;;89.55;56.53;;;;;;;;;;5061992;28;20024;-51
2021/05/16 12:33:11;;;;;;;51.35;33.22;;;;;;;;;;5060719;28;20033;-51
2021/05/16 12:35:37;;;;;;;105.95;69.20;;;;;;;;;;5061851;28;20025;-50
2021/05/16 12:38:10;;;;;;;98.07;65.32;;;;;;;;;;5060645;28;20052;-49
2021/05/16 12:40:36;;;;;;;23.70;14.20;;;;;;;;;;5076506;28;20040;-52
2021/05/16 12:43:07;;;;;;;51.25;34.67;;;;;;;;;;5060838;28;20032;-49
2021/05/16 12:45:33;;;;;;;100.38;59.90;;;;;;;;;;5060674;28;20116;-48
2021/05/16 12:48:03;;;;;;;251.68;160.02;;;;;;;;;;5060837;28;20028;-49
2021/05/16 12:50:32;;;;;;;49.92;35.03;;;;;;;;;;5061610;28;20025;-48
2021/05/16 12:53:30;;;;;;;264.10;136.48;;;;;;;;;;5060895;28;20477;-52
2021/05/16 12:56:18;;;;;;;112.10;64.97;;;;;;;;;;5060382;28;20033;-50
2021/05/16 13:01:30;;;;;;;93.55;53.40;;;;;;;;;;5060547;28;20028;-49
2021/05/16 13:03:57;;;;;;;31.98;15.73;;;;;;;;;;5060973;28;20515;-48
2021/05/16 13:06:30;;;;;;;164.68;86.85;;;;;;;;;;5060584;28;20068;-48
2021/05/16 13:08:56;;;;;;;126.65;49.60;;;;;;;;;;5062326;28;20521;-50
2021/05/16 13:11:23;;;;;;;29.88;22.25;;;;;;;;;;5063860;28;20047;-50
2021/05/16 13:13:55;;;;;;;63.63;28.95;;;;;;;;;;5065143;28;20028;-50
2021/05/16 13:16:21;;;;;;;94.03;51.05;;;;;;;;;;5063920;28;20401;-48
2021/05/16 13:18:55;;;;;;;51.25;19.38;;;;;;;;;;5064331;28;20089;-49
2021/05/16 13:21:21;;;;;;;44.60;25.25;;;;;;;;;;5064948;28;20036;-50
2021/05/16 13:24:01;;;;;;;50.67;31.77;;;;;;;;;;5063685;28;20494;-50
2021/05/16 13:26:51;;;;;;;40.58;24.65;;;;;;;;;;5064825;28;20044;-52
2021/05/16 13:29:18;;;;;;;137.35;105.20;;;;;;;;;;5063114;28;20094;-48
2021/05/16 13:31:44;;;;;;;215.48;143.32;;;;;;;;;;5063583;28;20374;-51
2021/05/16 13:34:18;;;;;;;39.97;25.20;;;;;;;;;;5073530;28;20480;-50
2021/05/16 13:36:44;;;;;;;66.60;26.17;;;;;;;;;;5065719;28;20035;-53
2021/05/16 13:39:10;;;;;;;133.95;52.38;;;;;;;;;;5063790;28;20036;-49
2021/05/16 13:41:36;;;;;;;34.28;18.13;;;;;;;;;;5063330;28;20025;-51
2021/05/16 13:44:05;;;;;;;31.48;18.63;;;;;;;;;;5063439;28;20537;-49
2021/05/16 13:46:34;;;;;;;19.63;10.40;;;;;;;;;;5063975;28;20048;-51
2021/05/16 13:49:00;;;;;;;14.88;7.97;;;;;;;;;;5063378;28;20161;-49
2021/05/16 13:51:26;;;;;;;12.60;5.50;;;;;;;;;;5062844;28;20760;-52
2021/05/16 13:53:52;;;;;;;6.53;3.03;;;;;;;;;;5063146;28;20024;-51
2021/05/16 13:56:18;;;;;;;5.53;3.22;;;;;;;;;;5063472;28;20100;-53
2021/05/16 13:58:44;;;;;;;5.45;3.50;;;;;;;;;;5063226;28;20020;-53
2021/05/16 14:01:10;;;;;;;18.33;9.52;;;;;;;;;;5062733;28;20024;-50
2021/05/16 14:03:36;;;;;;;32.10;21.95;;;;;;;;;;5062781;28;20075;-51
2021/05/16 14:06:02;;;;;;;144.05;102.07;;;;;;;;;;5062900;28;20682;-51
2021/05/16 14:08:29;;;;;;;50.85;30.02;;;;;;;;;;5062929;28;20674;-51
2021/05/16 14:10:55;;;;;;;70.38;42.17;;;;;;;;;;5062381;28;20097;-50
2021/05/16 14:13:21;;;;;;;53.95;31.25;;;;;;;;;;5062942;28;20040;-50
2021/05/16 14:15:47;;;;;;;22.48;14.38;;;;;;;;;;5062684;28;20029;-50
2021/05/16 14:18:13;;;;;;;5.13;3.13;;;;;;;;;;5062776;28;20781;-49
2021/05/16 14:20:39;;;;;;;37.97;24.60;;;;;;;;;;5063998;28;20081;-51
2021/05/16 14:23:05;;;;;;;81.43;52.78;;;;;;;;;;5063235;28;20330;-51
2021/05/16 14:25:31;;;;;;;102.05;64.47;;;;;;;;;;5062788;28;20025;-51
2021/05/16 14:27:58;;;;;;;31.45;20.33;;;;;;;;;;5062297;28;20519;-51
2021/05/16 14:30:24;;;;;;;42.80;23.73;;;;;;;;;;5061077;28;20165;-52
2021/05/16 14:32:50;;;;;;;9.55;4.95;;;;;;;;;;5063860;28;20020;-49